sensor_id;sensor_type;location;lat;lon;timestamp;temperature;humidity
73112;HTU21D;61301;51.956;5.876;2023-07-31T00:01:49;20.28;63.96
73112;HTU21D;61301;51.956;5.876;2023-07-31T00:04:15;20.28;63.73
73112;HTU21D;61301;51.956;5.876;2023-07-31T00:06:41;20.35;63.78
73112;HTU21D;61301;51.956;5.876;2023-07-31T00:09:07;20.42;63.49
73112;HTU21D;61301;51.956;5.876;2023-07-31T00:11:33;20.42;63.51
73112;HTU21D;61301;51.956;5.876;2023-07-31T00:13:59;20.45;63.45
73112;HTU21D;61301;51.956;5.876;2023-07-31T00:16:34;20.54;63.54
73112;HTU21D;61301;51.956;5.876;2023-07-31T00:19:00;20.55;63.53
73112;HTU21D;61301;51.956;5.876;2023-07-31T00:21:26;20.58;63.34
73112;HTU21D;61301;51.956;5.876;2023-07-31T00:23:52;20.54;63.56
73112;HTU21D;61301;51.956;5.876;2023-07-31T00:26:18;20.54;63.36
73112;HTU21D;61301;51.956;5.876;2023-07-31T00:28:44;20.59;63.27
73112;HTU21D;61301;51.956;5.876;2023-07-31T00:31:10;20.58;63.46
73112;HTU21D;61301;51.956;5.876;2023-07-31T00:33:37;20.59;63.87
73112;HTU21D;61301;51.956;5.876;2023-07-31T00:36:03;20.50;64.18
73112;HTU21D;61301;51.956;5.876;2023-07-31T00:38:29;20.50;64.14
73112;HTU21D;61301;51.956;5.876;2023-07-31T00:40:55;20.53;64.49
73112;HTU21D;61301;51.956;5.876;2023-07-31T00:43:21;20.54;64.46
73112;HTU21D;61301;51.956;5.876;2023-07-31T00:45:48;20.60;64.53
73112;HTU21D;61301;51.956;5.876;2023-07-31T00:48:14;20.66;64.61
73112;HTU21D;61301;51.956;5.876;2023-07-31T00:50:41;20.65;64.63
73112;HTU21D;61301;51.956;5.876;2023-07-31T00:53:07;20.72;64.50
73112;HTU21D;61301;51.956;5.876;2023-07-31T00:55:33;20.76;64.73
73112;HTU21D;61301;51.956;5.876;2023-07-31T00:57:59;20.84;64.64
73112;HTU21D;61301;51.956;5.876;2023-07-31T01:00:25;20.87;64.82
73112;HTU21D;61301;51.956;5.876;2023-07-31T01:02:52;20.91;65.33
73112;HTU21D;61301;51.956;5.876;2023-07-31T01:05:43;20.91;65.86
73112;HTU21D;61301;51.956;5.876;2023-07-31T01:11:27;21.01;65.99
73112;HTU21D;61301;51.956;5.876;2023-07-31T01:13:54;21.05;65.69
73112;HTU21D;61301;51.956;5.876;2023-07-31T01:16:20;21.03;65.75
73112;HTU21D;61301;51.956;5.876;2023-07-31T01:18:46;21.04;65.82
73112;HTU21D;61301;51.956;5.876;2023-07-31T01:21:56;21.15;65.71
73112;HTU21D;61301;51.956;5.876;2023-07-31T01:24:40;21.10;65.91
73112;HTU21D;61301;51.956;5.876;2023-07-31T01:27:15;21.15;65.92
73112;HTU21D;61301;51.956;5.876;2023-07-31T01:29:50;21.22;65.65
73112;HTU21D;61301;51.956;5.876;2023-07-31T01:32:19;21.21;65.40
73112;HTU21D;61301;51.956;5.876;2023-07-31T01:34:45;21.25;65.19
73112;HTU21D;61301;51.956;5.876;2023-07-31T01:37:12;21.15;65.47
73112;HTU21D;61301;51.956;5.876;2023-07-31T01:39:38;21.17;65.36
73112;HTU21D;61301;51.956;5.876;2023-07-31T01:42:04;21.20;65.19
73112;HTU21D;61301;51.956;5.876;2023-07-31T01:44:30;21.24;64.95
73112;HTU21D;61301;51.956;5.876;2023-07-31T01:46:56;21.24;64.98
73112;HTU21D;61301;51.956;5.876;2023-07-31T01:49:24;21.23;65.01
73112;HTU21D;61301;51.956;5.876;2023-07-31T01:51:50;21.25;65.01
73112;HTU21D;61301;51.956;5.876;2023-07-31T01:54:17;21.20;65.00
73112;HTU21D;61301;51.956;5.876;2023-07-31T01:56:43;21.17;65.07
73112;HTU21D;61301;51.956;5.876;2023-07-31T01:59:09;21.17;65.11
73112;HTU21D;61301;51.956;5.876;2023-07-31T02:01:35;21.09;65.31
73112;HTU21D;61301;51.956;5.876;2023-07-31T02:04:01;21.04;65.55
73112;HTU21D;61301;51.956;5.876;2023-07-31T02:06:27;21.03;65.39
73112;HTU21D;61301;51.956;5.876;2023-07-31T02:08:53;21.03;65.37
73112;HTU21D;61301;51.956;5.876;2023-07-31T02:11:19;21.08;65.21
73112;HTU21D;61301;51.956;5.876;2023-07-31T02:13:45;21.13;65.09
73112;HTU21D;61301;51.956;5.876;2023-07-31T02:16:11;21.18;64.94
73112;HTU21D;61301;51.956;5.876;2023-07-31T02:18:37;21.17;64.97
73112;HTU21D;61301;51.956;5.876;2023-07-31T02:21:03;21.19;64.85
73112;HTU21D;61301;51.956;5.876;2023-07-31T02:23:29;21.17;64.86
73112;HTU21D;61301;51.956;5.876;2023-07-31T02:25:55;21.14;64.95
73112;HTU21D;61301;51.956;5.876;2023-07-31T02:28:21;21.11;65.13
73112;HTU21D;61301;51.956;5.876;2023-07-31T02:30:47;21.07;65.00
73112;HTU21D;61301;51.956;5.876;2023-07-31T02:33:14;21.10;65.02
73112;HTU21D;61301;51.956;5.876;2023-07-31T02:35:41;21.10;65.00
73112;HTU21D;61301;51.956;5.876;2023-07-31T02:38:07;21.11;64.92
73112;HTU21D;61301;51.956;5.876;2023-07-31T02:40:33;21.09;65.01
73112;HTU21D;61301;51.956;5.876;2023-07-31T02:42:59;21.11;64.92
73112;HTU21D;61301;51.956;5.876;2023-07-31T02:45:26;21.13;64.88
73112;HTU21D;61301;51.956;5.876;2023-07-31T02:47:52;21.01;65.16
73112;HTU21D;61301;51.956;5.876;2023-07-31T02:50:18;21.08;64.90
73112;HTU21D;61301;51.956;5.876;2023-07-31T02:52:44;21.11;64.80
73112;HTU21D;61301;51.956;5.876;2023-07-31T02:55:10;21.07;64.88
73112;HTU21D;61301;51.956;5.876;2023-07-31T02:57:36;21.10;64.75
73112;HTU21D;61301;51.956;5.876;2023-07-31T03:00:03;21.07;64.84
73112;HTU21D;61301;51.956;5.876;2023-07-31T03:02:32;21.09;64.66
73112;HTU21D;61301;51.956;5.876;2023-07-31T03:04:58;21.15;64.46
73112;HTU21D;61301;51.956;5.876;2023-07-31T03:07:26;21.11;64.37
73112;HTU21D;61301;51.956;5.876;2023-07-31T03:09:51;21.16;64.23
73112;HTU21D;61301;51.956;5.876;2023-07-31T03:12:17;21.16;64.21
73112;HTU21D;61301;51.956;5.876;2023-07-31T03:14:45;21.15;64.10
73112;HTU21D;61301;51.956;5.876;2023-07-31T03:17:11;21.20;63.99
73112;HTU21D;61301;51.956;5.876;2023-07-31T03:19:37;21.18;63.97
73112;HTU21D;61301;51.956;5.876;2023-07-31T03:22:04;21.20;63.83
73112;HTU21D;61301;51.956;5.876;2023-07-31T03:24:30;21.18;63.68
73112;HTU21D;61301;51.956;5.876;2023-07-31T03:26:56;21.17;63.73
73112;HTU21D;61301;51.956;5.876;2023-07-31T03:29:22;21.22;63.57
73112;HTU21D;61301;51.956;5.876;2023-07-31T03:31:48;21.24;63.44
73112;HTU21D;61301;51.956;5.876;2023-07-31T03:34:14;21.27;63.18
73112;HTU21D;61301;51.956;5.876;2023-07-31T03:36:40;21.23;63.25
73112;HTU21D;61301;51.956;5.876;2023-07-31T03:39:06;21.20;63.25
73112;HTU21D;61301;51.956;5.876;2023-07-31T03:41:32;21.20;63.08
73112;HTU21D;61301;51.956;5.876;2023-07-31T03:43:58;21.22;62.88
73112;HTU21D;61301;51.956;5.876;2023-07-31T03:46:24;21.19;62.85
73112;HTU21D;61301;51.956;5.876;2023-07-31T03:48:51;21.24;62.58
73112;HTU21D;61301;51.956;5.876;2023-07-31T03:51:17;21.19;62.58
73112;HTU21D;61301;51.956;5.876;2023-07-31T03:53:44;21.22;62.55
73112;HTU21D;61301;51.956;5.876;2023-07-31T03:56:10;21.17;62.33
73112;HTU21D;61301;51.956;5.876;2023-07-31T03:58:37;21.10;62.54
73112;HTU21D;61301;51.956;5.876;2023-07-31T04:01:03;21.08;62.64
73112;HTU21D;61301;51.956;5.876;2023-07-31T04:03:30;21.06;62.72
73112;HTU21D;61301;51.956;5.876;2023-07-31T04:05:56;21.09;62.57
73112;HTU21D;61301;51.956;5.876;2023-07-31T04:08:22;21.07;62.44
73112;HTU21D;61301;51.956;5.876;2023-07-31T04:10:48;21.09;62.47
73112;HTU21D;61301;51.956;5.876;2023-07-31T04:13:15;21.16;62.31
73112;HTU21D;61301;51.956;5.876;2023-07-31T04:15:41;21.18;62.21
73112;HTU21D;61301;51.956;5.876;2023-07-31T04:18:07;21.18;62.10
73112;HTU21D;61301;51.956;5.876;2023-07-31T04:20:33;21.17;62.18
73112;HTU21D;61301;51.956;5.876;2023-07-31T04:22:59;21.16;62.21
73112;HTU21D;61301;51.956;5.876;2023-07-31T04:25:25;21.18;62.15
73112;HTU21D;61301;51.956;5.876;2023-07-31T04:27:51;21.18;62.11
73112;HTU21D;61301;51.956;5.876;2023-07-31T04:30:17;21.13;62.36
73112;HTU21D;61301;51.956;5.876;2023-07-31T04:32:43;21.13;62.21
73112;HTU21D;61301;51.956;5.876;2023-07-31T04:35:10;21.19;62.05
73112;HTU21D;61301;51.956;5.876;2023-07-31T04:37:36;21.15;62.07
73112;HTU21D;61301;51.956;5.876;2023-07-31T04:40:02;21.16;62.11
73112;HTU21D;61301;51.956;5.876;2023-07-31T04:42:28;21.16;62.01
73112;HTU21D;61301;51.956;5.876;2023-07-31T04:44:54;21.09;62.13
73112;HTU21D;61301;51.956;5.876;2023-07-31T04:47:20;21.15;62.04
73112;HTU21D;61301;51.956;5.876;2023-07-31T04:49:46;21.13;62.04
73112;HTU21D;61301;51.956;5.876;2023-07-31T04:52:12;21.11;62.07
73112;HTU21D;61301;51.956;5.876;2023-07-31T04:54:38;21.17;61.98
73112;HTU21D;61301;51.956;5.876;2023-07-31T04:57:04;21.16;61.98
73112;HTU21D;61301;51.956;5.876;2023-07-31T04:59:30;21.22;61.81
73112;HTU21D;61301;51.956;5.876;2023-07-31T05:01:57;21.21;61.73
73112;HTU21D;61301;51.956;5.876;2023-07-31T05:04:23;21.15;61.65
73112;HTU21D;61301;51.956;5.876;2023-07-31T05:06:49;21.05;62.01
73112;HTU21D;61301;51.956;5.876;2023-07-31T05:09:15;20.95;62.27
73112;HTU21D;61301;51.956;5.876;2023-07-31T05:11:41;21.00;62.19
73112;HTU21D;61301;51.956;5.876;2023-07-31T05:14:11;21.07;62.22
73112;HTU21D;61301;51.956;5.876;2023-07-31T05:16:37;21.05;62.25
73112;HTU21D;61301;51.956;5.876;2023-07-31T05:19:03;21.14;62.01
73112;HTU21D;61301;51.956;5.876;2023-07-31T05:21:32;21.16;62.02
73112;HTU21D;61301;51.956;5.876;2023-07-31T05:23:58;21.09;62.16
73112;HTU21D;61301;51.956;5.876;2023-07-31T05:26:24;21.07;62.28
73112;HTU21D;61301;51.956;5.876;2023-07-31T05:28:50;20.96;62.65
73112;HTU21D;61301;51.956;5.876;2023-07-31T05:31:16;20.90;63.06
73112;HTU21D;61301;51.956;5.876;2023-07-31T05:33:42;20.94;63.14
73112;HTU21D;61301;51.956;5.876;2023-07-31T05:36:08;20.99;63.03
73112;HTU21D;61301;51.956;5.876;2023-07-31T05:38:35;21.03;63.09
73112;HTU21D;61301;51.956;5.876;2023-07-31T05:41:01;21.03;63.15
73112;HTU21D;61301;51.956;5.876;2023-07-31T05:43:27;20.96;63.70
73112;HTU21D;61301;51.956;5.876;2023-07-31T05:45:53;20.88;63.99
73112;HTU21D;61301;51.956;5.876;2023-07-31T05:48:19;20.86;64.24
73112;HTU21D;61301;51.956;5.876;2023-07-31T05:50:45;20.86;64.35
73112;HTU21D;61301;51.956;5.876;2023-07-31T05:53:11;20.87;64.50
73112;HTU21D;61301;51.956;5.876;2023-07-31T05:55:37;20.85;64.60
73112;HTU21D;61301;51.956;5.876;2023-07-31T05:58:03;20.88;64.54
73112;HTU21D;61301;51.956;5.876;2023-07-31T06:00:29;20.85;64.69
73112;HTU21D;61301;51.956;5.876;2023-07-31T06:02:56;20.79;65.15
73112;HTU21D;61301;51.956;5.876;2023-07-31T06:05:22;20.78;65.33
73112;HTU21D;61301;51.956;5.876;2023-07-31T06:07:48;20.80;65.47
73112;HTU21D;61301;51.956;5.876;2023-07-31T06:10:14;20.78;65.74
73112;HTU21D;61301;51.956;5.876;2023-07-31T06:12:40;20.83;65.87
73112;HTU21D;61301;51.956;5.876;2023-07-31T06:15:06;20.90;65.75
73112;HTU21D;61301;51.956;5.876;2023-07-31T06:17:32;20.85;66.11
73112;HTU21D;61301;51.956;5.876;2023-07-31T06:19:58;20.84;66.24
73112;HTU21D;61301;51.956;5.876;2023-07-31T06:22:24;20.93;66.03
73112;HTU21D;61301;51.956;5.876;2023-07-31T06:24:50;20.85;66.43
73112;HTU21D;61301;51.956;5.876;2023-07-31T06:27:16;20.93;66.20
73112;HTU21D;61301;51.956;5.876;2023-07-31T06:29:42;21.00;66.14
73112;HTU21D;61301;51.956;5.876;2023-07-31T06:32:08;21.04;66.17
73112;HTU21D;61301;51.956;5.876;2023-07-31T06:34:34;21.00;66.28
73112;HTU21D;61301;51.956;5.876;2023-07-31T06:37:00;21.05;66.24
73112;HTU21D;61301;51.956;5.876;2023-07-31T06:39:27;21.10;66.24
73112;HTU21D;61301;51.956;5.876;2023-07-31T06:41:53;21.14;66.18
73112;HTU21D;61301;51.956;5.876;2023-07-31T06:44:20;21.14;66.22
73112;HTU21D;61301;51.956;5.876;2023-07-31T06:46:46;21.23;66.13
73112;HTU21D;61301;51.956;5.876;2023-07-31T06:49:12;21.19;66.31
73112;HTU21D;61301;51.956;5.876;2023-07-31T06:51:41;21.20;66.25
73112;HTU21D;61301;51.956;5.876;2023-07-31T06:54:08;21.28;66.14
73112;HTU21D;61301;51.956;5.876;2023-07-31T06:56:34;21.36;65.82
73112;HTU21D;61301;51.956;5.876;2023-07-31T06:59:00;21.46;65.70
73112;HTU21D;61301;51.956;5.876;2023-07-31T07:01:26;21.38;65.88
73112;HTU21D;61301;51.956;5.876;2023-07-31T07:03:53;21.40;65.85
73112;HTU21D;61301;51.956;5.876;2023-07-31T07:06:19;21.37;65.99
73112;HTU21D;61301;51.956;5.876;2023-07-31T07:08:45;21.40;65.91
73112;HTU21D;61301;51.956;5.876;2023-07-31T07:11:11;21.37;66.17
73112;HTU21D;61301;51.956;5.876;2023-07-31T07:13:37;21.30;66.51
73112;HTU21D;61301;51.956;5.876;2023-07-31T07:16:03;21.34;66.43
73112;HTU21D;61301;51.956;5.876;2023-07-31T07:18:29;21.36;66.53
73112;HTU21D;61301;51.956;5.876;2023-07-31T07:20:56;21.37;66.62
73112;HTU21D;61301;51.956;5.876;2023-07-31T07:23:24;21.38;66.57
73112;HTU21D;61301;51.956;5.876;2023-07-31T07:25:50;21.54;66.40
73112;HTU21D;61301;51.956;5.876;2023-07-31T07:28:17;21.63;66.18
73112;HTU21D;61301;51.956;5.876;2023-07-31T07:30:43;21.66;66.08
73112;HTU21D;61301;51.956;5.876;2023-07-31T07:33:09;21.64;66.17
73112;HTU21D;61301;51.956;5.876;2023-07-31T07:35:35;21.63;66.20
73112;HTU21D;61301;51.956;5.876;2023-07-31T07:38:04;21.63;66.17
73112;HTU21D;61301;51.956;5.876;2023-07-31T07:40:30;21.61;66.22
73112;HTU21D;61301;51.956;5.876;2023-07-31T07:42:56;21.61;66.18
73112;HTU21D;61301;51.956;5.876;2023-07-31T07:45:22;21.62;66.16
73112;HTU21D;61301;51.956;5.876;2023-07-31T07:47:48;21.55;66.24
73112;HTU21D;61301;51.956;5.876;2023-07-31T07:50:14;21.61;66.14
73112;HTU21D;61301;51.956;5.876;2023-07-31T07:52:40;21.64;66.04
73112;HTU21D;61301;51.956;5.876;2023-07-31T07:55:06;21.60;66.13
73112;HTU21D;61301;51.956;5.876;2023-07-31T07:57:33;21.62;66.16
73112;HTU21D;61301;51.956;5.876;2023-07-31T07:59:59;21.55;66.40
73112;HTU21D;61301;51.956;5.876;2023-07-31T08:02:25;21.55;66.42
73112;HTU21D;61301;51.956;5.876;2023-07-31T08:04:51;21.61;66.35
73112;HTU21D;61301;51.956;5.876;2023-07-31T08:07:16;21.70;66.21
73112;HTU21D;61301;51.956;5.876;2023-07-31T08:09:42;21.68;66.18
73112;HTU21D;61301;51.956;5.876;2023-07-31T08:12:08;21.64;66.33
73112;HTU21D;61301;51.956;5.876;2023-07-31T08:14:34;21.65;66.38
73112;HTU21D;61301;51.956;5.876;2023-07-31T08:17:02;21.62;66.53
73112;HTU21D;61301;51.956;5.876;2023-07-31T08:19:27;21.65;66.35
73112;HTU21D;61301;51.956;5.876;2023-07-31T08:21:53;21.69;66.30
73112;HTU21D;61301;51.956;5.876;2023-07-31T08:24:19;21.75;66.16
73112;HTU21D;61301;51.956;5.876;2023-07-31T08:26:47;21.75;66.35
73112;HTU21D;61301;51.956;5.876;2023-07-31T08:29:13;21.75;66.49
73112;HTU21D;61301;51.956;5.876;2023-07-31T08:31:39;21.82;66.32
73112;HTU21D;61301;51.956;5.876;2023-07-31T08:34:04;21.83;66.47
73112;HTU21D;61301;51.956;5.876;2023-07-31T08:36:30;21.89;66.28
73112;HTU21D;61301;51.956;5.876;2023-07-31T08:38:56;21.88;66.36
73112;HTU21D;61301;51.956;5.876;2023-07-31T08:41:22;21.91;66.17
73112;HTU21D;61301;51.956;5.876;2023-07-31T08:43:51;21.88;66.42
73112;HTU21D;61301;51.956;5.876;2023-07-31T08:46:18;21.88;66.47
73112;HTU21D;61301;51.956;5.876;2023-07-31T08:48:46;21.95;66.37
73112;HTU21D;61301;51.956;5.876;2023-07-31T08:51:14;21.93;66.38
73112;HTU21D;61301;51.956;5.876;2023-07-31T08:53:40;21.93;66.47
73112;HTU21D;61301;51.956;5.876;2023-07-31T08:56:07;21.97;66.46
73112;HTU21D;61301;51.956;5.876;2023-07-31T08:58:34;21.90;66.61
73112;HTU21D;61301;51.956;5.876;2023-07-31T09:01:01;21.96;66.43
73112;HTU21D;61301;51.956;5.876;2023-07-31T09:03:33;22.01;66.59
73112;HTU21D;61301;51.956;5.876;2023-07-31T09:05:59;22.02;66.49
73112;HTU21D;61301;51.956;5.876;2023-07-31T09:08:28;22.06;66.35
73112;HTU21D;61301;51.956;5.876;2023-07-31T09:11:02;22.04;66.47
73112;HTU21D;61301;51.956;5.876;2023-07-31T09:13:33;22.09;66.45
73112;HTU21D;61301;51.956;5.876;2023-07-31T09:15:59;22.14;66.23
73112;HTU21D;61301;51.956;5.876;2023-07-31T09:18:25;22.13;66.14
73112;HTU21D;61301;51.956;5.876;2023-07-31T09:21:04;22.21;66.09
73112;HTU21D;61301;51.956;5.876;2023-07-31T09:23:47;22.26;65.87
73112;HTU21D;61301;51.956;5.876;2023-07-31T09:26:36;22.23;65.92
73112;HTU21D;61301;51.956;5.876;2023-07-31T09:29:07;22.13;66.25
73112;HTU21D;61301;51.956;5.876;2023-07-31T09:31:44;22.04;66.27
73112;HTU21D;61301;51.956;5.876;2023-07-31T09:34:10;22.03;66.33
73112;HTU21D;61301;51.956;5.876;2023-07-31T09:36:45;22.03;66.27
73112;HTU21D;61301;51.956;5.876;2023-07-31T09:39:12;22.08;66.13
73112;HTU21D;61301;51.956;5.876;2023-07-31T09:41:47;22.09;66.27
73112;HTU21D;61301;51.956;5.876;2023-07-31T09:44:13;22.10;66.29
73112;HTU21D;61301;51.956;5.876;2023-07-31T09:46:39;22.20;66.11
73112;HTU21D;61301;51.956;5.876;2023-07-31T09:49:13;22.26;65.95
73112;HTU21D;61301;51.956;5.876;2023-07-31T09:51:42;22.29;65.75
73112;HTU21D;61301;51.956;5.876;2023-07-31T09:54:12;22.28;65.65
73112;HTU21D;61301;51.956;5.876;2023-07-31T09:56:47;22.35;65.56
73112;HTU21D;61301;51.956;5.876;2023-07-31T09:59:18;22.36;65.61
73112;HTU21D;61301;51.956;5.876;2023-07-31T10:01:48;22.36;65.91
73112;HTU21D;61301;51.956;5.876;2023-07-31T10:04:17;22.38;65.62
73112;HTU21D;61301;51.956;5.876;2023-07-31T10:06:47;22.44;65.56
73112;HTU21D;61301;51.956;5.876;2023-07-31T10:09:15;22.49;65.53
73112;HTU21D;61301;51.956;5.876;2023-07-31T10:11:51;22.50;65.44
73112;HTU21D;61301;51.956;5.876;2023-07-31T10:14:20;22.52;65.23
73112;HTU21D;61301;51.956;5.876;2023-07-31T10:16:47;22.54;65.09
73112;HTU21D;61301;51.956;5.876;2023-07-31T10:19:14;22.55;65.00
73112;HTU21D;61301;51.956;5.876;2023-07-31T10:21:40;22.67;64.96
73112;HTU21D;61301;51.956;5.876;2023-07-31T10:24:07;22.61;64.98
73112;HTU21D;61301;51.956;5.876;2023-07-31T10:26:35;22.69;64.83
73112;HTU21D;61301;51.956;5.876;2023-07-31T10:29:04;22.72;64.53
73112;HTU21D;61301;51.956;5.876;2023-07-31T10:31:31;22.63;64.66
73112;HTU21D;61301;51.956;5.876;2023-07-31T10:33:58;22.60;64.65
73112;HTU21D;61301;51.956;5.876;2023-07-31T10:36:28;22.60;64.40
73112;HTU21D;61301;51.956;5.876;2023-07-31T10:38:55;22.66;64.42
73112;HTU21D;61301;51.956;5.876;2023-07-31T10:41:31;22.73;64.47
73112;HTU21D;61301;51.956;5.876;2023-07-31T10:44:00;22.67;64.69
73112;HTU21D;61301;51.956;5.876;2023-07-31T10:46:29;22.77;64.28
73112;HTU21D;61301;51.956;5.876;2023-07-31T10:49:00;22.77;64.35
73112;HTU21D;61301;51.956;5.876;2023-07-31T10:51:33;22.86;64.26
73112;HTU21D;61301;51.956;5.876;2023-07-31T10:54:13;22.95;63.98
73112;HTU21D;61301;51.956;5.876;2023-07-31T10:56:45;23.05;63.85
73112;HTU21D;61301;51.956;5.876;2023-07-31T10:59:11;23.13;63.63
73112;HTU21D;61301;51.956;5.876;2023-07-31T11:01:52;23.20;63.05
73112;HTU21D;61301;51.956;5.876;2023-07-31T11:04:25;23.24;63.19
73112;HTU21D;61301;51.956;5.876;2023-07-31T11:06:59;23.30;63.09
73112;HTU21D;61301;51.956;5.876;2023-07-31T11:09:32;23.20;63.23
73112;HTU21D;61301;51.956;5.876;2023-07-31T11:11:59;23.15;63.34
73112;HTU21D;61301;51.956;5.876;2023-07-31T11:14:26;23.13;63.66
73112;HTU21D;61301;51.956;5.876;2023-07-31T11:16:52;23.26;63.39
73112;HTU21D;61301;51.956;5.876;2023-07-31T11:19:22;23.37;63.31
73112;HTU21D;61301;51.956;5.876;2023-07-31T11:21:49;23.37;63.36
73112;HTU21D;61301;51.956;5.876;2023-07-31T11:24:16;23.31;63.42
73112;HTU21D;61301;51.956;5.876;2023-07-31T11:26:52;23.31;63.34
73112;HTU21D;61301;51.956;5.876;2023-07-31T11:29:21;23.16;63.93
73112;HTU21D;61301;51.956;5.876;2023-07-31T11:31:52;23.11;64.05
73112;HTU21D;61301;51.956;5.876;2023-07-31T11:34:18;23.21;63.90
73112;HTU21D;61301;51.956;5.876;2023-07-31T11:36:53;23.20;64.00
73112;HTU21D;61301;51.956;5.876;2023-07-31T11:39:20;23.17;63.90
73112;HTU21D;61301;51.956;5.876;2023-07-31T11:41:46;23.15;64.06
73112;HTU21D;61301;51.956;5.876;2023-07-31T11:44:12;23.07;64.26
73112;HTU21D;61301;51.956;5.876;2023-07-31T11:46:38;23.01;64.43
73112;HTU21D;61301;51.956;5.876;2023-07-31T11:49:05;23.13;64.11
73112;HTU21D;61301;51.956;5.876;2023-07-31T11:51:31;23.11;64.24
73112;HTU21D;61301;51.956;5.876;2023-07-31T11:53:59;23.25;64.01
73112;HTU21D;61301;51.956;5.876;2023-07-31T11:56:26;23.26;63.59
73112;HTU21D;61301;51.956;5.876;2023-07-31T11:58:56;23.42;63.21
73112;HTU21D;61301;51.956;5.876;2023-07-31T12:01:23;23.36;63.52
73112;HTU21D;61301;51.956;5.876;2023-07-31T12:03:50;23.31;63.64
73112;HTU21D;61301;51.956;5.876;2023-07-31T12:06:16;23.29;63.67
73112;HTU21D;61301;51.956;5.876;2023-07-31T12:08:42;23.29;63.20
73112;HTU21D;61301;51.956;5.876;2023-07-31T12:11:09;23.28;63.14
73112;HTU21D;61301;51.956;5.876;2023-07-31T12:13:35;23.37;62.94
73112;HTU21D;61301;51.956;5.876;2023-07-31T12:16:03;23.50;62.77
73112;HTU21D;61301;51.956;5.876;2023-07-31T12:18:33;23.38;62.73
73112;HTU21D;61301;51.956;5.876;2023-07-31T12:21:02;23.38;62.83
73112;HTU21D;61301;51.956;5.876;2023-07-31T12:23:31;23.36;63.12
73112;HTU21D;61301;51.956;5.876;2023-07-31T12:26:03;23.35;63.07
73112;HTU21D;61301;51.956;5.876;2023-07-31T12:28:30;23.42;63.03
73112;HTU21D;61301;51.956;5.876;2023-07-31T12:31:00;23.40;63.23
73112;HTU21D;61301;51.956;5.876;2023-07-31T12:33:36;23.25;63.58
73112;HTU21D;61301;51.956;5.876;2023-07-31T12:36:04;23.15;63.96
73112;HTU21D;61301;51.956;5.876;2023-07-31T12:38:30;23.05;64.37
73112;HTU21D;61301;51.956;5.876;2023-07-31T12:40:56;23.03;64.59
73112;HTU21D;61301;51.956;5.876;2023-07-31T12:43:22;23.14;64.25
73112;HTU21D;61301;51.956;5.876;2023-07-31T12:45:48;23.17;64.24
73112;HTU21D;61301;51.956;5.876;2023-07-31T12:48:14;23.12;64.47
73112;HTU21D;61301;51.956;5.876;2023-07-31T12:50:40;23.12;64.56
73112;HTU21D;61301;51.956;5.876;2023-07-31T12:53:06;23.01;64.77
73112;HTU21D;61301;51.956;5.876;2023-07-31T12:55:33;22.97;64.85
73112;HTU21D;61301;51.956;5.876;2023-07-31T12:58:00;22.93;65.19
73112;HTU21D;61301;51.956;5.876;2023-07-31T13:00:26;22.90;65.35
73112;HTU21D;61301;51.956;5.876;2023-07-31T13:02:52;22.90;65.38
73112;HTU21D;61301;51.956;5.876;2023-07-31T13:05:18;22.91;65.37
73112;HTU21D;61301;51.956;5.876;2023-07-31T13:07:47;22.91;65.53
73112;HTU21D;61301;51.956;5.876;2023-07-31T13:10:13;23.08;65.24
73112;HTU21D;61301;51.956;5.876;2023-07-31T13:12:39;23.26;65.08
73112;HTU21D;61301;51.956;5.876;2023-07-31T13:15:06;23.29;65.23
73112;HTU21D;61301;51.956;5.876;2023-07-31T13:17:33;23.42;64.87
73112;HTU21D;61301;51.956;5.876;2023-07-31T13:19:59;23.49;64.44
73112;HTU21D;61301;51.956;5.876;2023-07-31T13:22:25;23.44;64.34
73112;HTU21D;61301;51.956;5.876;2023-07-31T13:24:52;23.45;64.34
73112;HTU21D;61301;51.956;5.876;2023-07-31T13:27:21;23.47;64.30
73112;HTU21D;61301;51.956;5.876;2023-07-31T13:29:51;23.45;64.23
73112;HTU21D;61301;51.956;5.876;2023-07-31T13:32:18;23.53;64.09
73112;HTU21D;61301;51.956;5.876;2023-07-31T13:34:46;23.65;63.58
73112;HTU21D;61301;51.956;5.876;2023-07-31T13:37:12;23.67;63.50
73112;HTU21D;61301;51.956;5.876;2023-07-31T13:39:39;23.74;63.35
73112;HTU21D;61301;51.956;5.876;2023-07-31T13:42:06;23.67;63.41
73112;HTU21D;61301;51.956;5.876;2023-07-31T13:44:34;23.70;63.35
73112;HTU21D;61301;51.956;5.876;2023-07-31T13:47:01;23.68;63.13
73112;HTU21D;61301;51.956;5.876;2023-07-31T13:49:28;23.59;63.40
73112;HTU21D;61301;51.956;5.876;2023-07-31T13:51:54;23.59;63.40
73112;HTU21D;61301;51.956;5.876;2023-07-31T13:54:20;23.57;63.34
73112;HTU21D;61301;51.956;5.876;2023-07-31T13:56:49;23.55;63.41
73112;HTU21D;61301;51.956;5.876;2023-07-31T13:59:15;23.55;63.66
73112;HTU21D;61301;51.956;5.876;2023-07-31T14:01:43;23.58;63.76
73112;HTU21D;61301;51.956;5.876;2023-07-31T14:04:09;23.55;63.81
73112;HTU21D;61301;51.956;5.876;2023-07-31T14:06:35;23.49;63.69
73112;HTU21D;61301;51.956;5.876;2023-07-31T14:09:01;23.54;63.62
73112;HTU21D;61301;51.956;5.876;2023-07-31T14:11:31;23.53;63.55
73112;HTU21D;61301;51.956;5.876;2023-07-31T14:13:57;23.42;63.67
73112;HTU21D;61301;51.956;5.876;2023-07-31T14:16:26;23.35;63.83
73112;HTU21D;61301;51.956;5.876;2023-07-31T14:18:52;23.21;64.21
73112;HTU21D;61301;51.956;5.876;2023-07-31T14:21:19;23.25;64.15
73112;HTU21D;61301;51.956;5.876;2023-07-31T14:23:45;23.31;64.15
73112;HTU21D;61301;51.956;5.876;2023-07-31T14:26:11;23.41;64.00
73112;HTU21D;61301;51.956;5.876;2023-07-31T14:28:38;23.34;64.34
73112;HTU21D;61301;51.956;5.876;2023-07-31T14:31:04;23.34;64.10
73112;HTU21D;61301;51.956;5.876;2023-07-31T14:33:30;23.31;64.30
73112;HTU21D;61301;51.956;5.876;2023-07-31T14:35:56;23.38;64.27
73112;HTU21D;61301;51.956;5.876;2023-07-31T14:38:22;23.38;64.39
73112;HTU21D;61301;51.956;5.876;2023-07-31T14:40:48;23.30;64.63
73112;HTU21D;61301;51.956;5.876;2023-07-31T14:43:14;23.24;64.88
73112;HTU21D;61301;51.956;5.876;2023-07-31T14:45:40;23.23;64.92
73112;HTU21D;61301;51.956;5.876;2023-07-31T14:48:06;23.08;65.14
73112;HTU21D;61301;51.956;5.876;2023-07-31T14:50:32;22.99;65.48
73112;HTU21D;61301;51.956;5.876;2023-07-31T14:52:58;22.93;65.61
73112;HTU21D;61301;51.956;5.876;2023-07-31T14:55:24;22.97;65.67
73112;HTU21D;61301;51.956;5.876;2023-07-31T14:57:50;22.94;65.67
73112;HTU21D;61301;51.956;5.876;2023-07-31T15:00:16;22.94;65.67
73112;HTU21D;61301;51.956;5.876;2023-07-31T15:02:42;22.96;65.64
73112;HTU21D;61301;51.956;5.876;2023-07-31T15:05:08;23.02;65.44
73112;HTU21D;61301;51.956;5.876;2023-07-31T15:07:34;23.08;65.32
73112;HTU21D;61301;51.956;5.876;2023-07-31T15:10:04;23.11;65.35
73112;HTU21D;61301;51.956;5.876;2023-07-31T15:12:30;23.12;65.27
73112;HTU21D;61301;51.956;5.876;2023-07-31T15:14:56;23.05;65.47
73112;HTU21D;61301;51.956;5.876;2023-07-31T15:17:22;23.14;65.31
73112;HTU21D;61301;51.956;5.876;2023-07-31T15:19:48;23.08;65.43